sensor_id;sensor_type;location;lat;lon;timestamp;temperature;humidity
76613;DHT22;65507;48.454;-2.058;2024-02-26T00:00:32;9.30;90.50
76613;DHT22;65507;48.454;-2.058;2024-02-26T00:03:00;9.30;90.50
76613;DHT22;65507;48.454;-2.058;2024-02-26T00:05:26;9.20;90.40
76613;DHT22;65507;48.454;-2.058;2024-02-26T00:07:51;9.20;90.40
76613;DHT22;65507;48.454;-2.058;2024-02-26T00:10:17;9.20;90.40
76613;DHT22;65507;48.454;-2.058;2024-02-26T00:12:43;9.20;90.40
76613;DHT22;65507;48.454;-2.058;2024-02-26T00:15:10;9.10;90.50
76613;DHT22;65507;48.454;-2.058;2024-02-26T00:17:36;9.10;90.50
76613;DHT22;65507;48.454;-2.058;2024-02-26T00:20:05;9.10;90.50
76613;DHT22;65507;48.454;-2.058;2024-02-26T00:22:34;9.10;90.50
76613;DHT22;65507;48.454;-2.058;2024-02-26T00:25:00;9.10;90.50
76613;DHT22;65507;48.454;-2.058;2024-02-26T00:27:25;9.10;90.50
76613;DHT22;65507;48.454;-2.058;2024-02-26T00:29:51;9.10;90.50
76613;DHT22;65507;48.454;-2.058;2024-02-26T00:32:17;9.10;90.50
76613;DHT22;65507;48.454;-2.058;2024-02-26T00:34:42;9.10;90.50
76613;DHT22;65507;48.454;-2.058;2024-02-26T00:37:08;9.00;90.50
76613;DHT22;65507;48.454;-2.058;2024-02-26T00:39:34;9.00;91.00
76613;DHT22;65507;48.454;-2.058;2024-02-26T00:41:59;9.00;90.50
76613;DHT22;65507;48.454;-2.058;2024-02-26T00:44:25;9.10;90.50
76613;DHT22;65507;48.454;-2.058;2024-02-26T00:46:51;9.10;90.50
76613;DHT22;65507;48.454;-2.058;2024-02-26T00:49:16;9.10;90.50
76613;DHT22;65507;48.454;-2.058;2024-02-26T00:51:42;9.10;90.40
76613;DHT22;65507;48.454;-2.058;2024-02-26T00:54:08;9.10;90.40
76613;DHT22;65507;48.454;-2.058;2024-02-26T00:56:33;9.20;90.40
76613;DHT22;65507;48.454;-2.058;2024-02-26T00:58:59;9.20;90.40
76613;DHT22;65507;48.454;-2.058;2024-02-26T01:01:25;9.20;90.40
76613;DHT22;65507;48.454;-2.058;2024-02-26T01:03:50;9.20;90.40
76613;DHT22;65507;48.454;-2.058;2024-02-26T01:06:16;9.20;90.40
76613;DHT22;65507;48.454;-2.058;2024-02-26T01:08:41;9.10;90.40
76613;DHT22;65507;48.454;-2.058;2024-02-26T01:11:07;9.20;90.40
76613;DHT22;65507;48.454;-2.058;2024-02-26T01:13:33;9.20;90.40
76613;DHT22;65507;48.454;-2.058;2024-02-26T01:15:59;9.20;90.40
76613;DHT22;65507;48.454;-2.058;2024-02-26T01:18:26;9.20;90.40
76613;DHT22;65507;48.454;-2.058;2024-02-26T01:20:51;9.20;90.40
76613;DHT22;65507;48.454;-2.058;2024-02-26T01:23:20;9.20;90.40
76613;DHT22;65507;48.454;-2.058;2024-02-26T01:25:46;9.20;90.40
76613;DHT22;65507;48.454;-2.058;2024-02-26T01:28:11;9.20;90.40
76613;DHT22;65507;48.454;-2.058;2024-02-26T01:30:37;9.30;90.40
76613;DHT22;65507;48.454;-2.058;2024-02-26T01:33:03;9.30;90.40
76613;DHT22;65507;48.454;-2.058;2024-02-26T01:35:29;9.30;90.40
76613;DHT22;65507;48.454;-2.058;2024-02-26T01:37:55;9.30;90.40
76613;DHT22;65507;48.454;-2.058;2024-02-26T01:40:21;9.30;90.40
76613;DHT22;65507;48.454;-2.058;2024-02-26T01:42:47;9.30;90.40
76613;DHT22;65507;48.454;-2.058;2024-02-26T01:45:17;9.30;90.50
76613;DHT22;65507;48.454;-2.058;2024-02-26T01:47:50;9.30;90.50
76613;DHT22;65507;48.454;-2.058;2024-02-26T01:50:17;9.30;90.40
76613;DHT22;65507;48.454;-2.058;2024-02-26T01:52:44;9.30;90.50
76613;DHT22;65507;48.454;-2.058;2024-02-26T01:55:12;9.30;90.50
76613;DHT22;65507;48.454;-2.058;2024-02-26T01:57:40;9.30;90.50
76613;DHT22;65507;48.454;-2.058;2024-02-26T02:00:07;9.30;90.50
76613;DHT22;65507;48.454;-2.058;2024-02-26T02:02:33;9.30;90.50
76613;DHT22;65507;48.454;-2.058;2024-02-26T02:04:59;9.30;90.50
76613;DHT22;65507;48.454;-2.058;2024-02-26T02:07:26;9.30;90.50
76613;DHT22;65507;48.454;-2.058;2024-02-26T02:09:51;9.40;90.50
76613;DHT22;65507;48.454;-2.058;2024-02-26T02:12:19;9.30;90.50
76613;DHT22;65507;48.454;-2.058;2024-02-26T02:14:45;9.30;90.50
76613;DHT22;65507;48.454;-2.058;2024-02-26T02:17:10;9.30;90.50
76613;DHT22;65507;48.454;-2.058;2024-02-26T02:19:36;9.40;90.50
76613;DHT22;65507;48.454;-2.058;2024-02-26T02:22:02;9.40;90.40
76613;DHT22;65507;48.454;-2.058;2024-02-26T02:24:28;9.40;90.30
76613;DHT22;65507;48.454;-2.058;2024-02-26T02:26:53;9.40;90.30
76613;DHT22;65507;48.454;-2.058;2024-02-26T02:29:19;9.40;90.30
76613;DHT22;65507;48.454;-2.058;2024-02-26T02:31:45;9.40;90.30
76613;DHT22;65507;48.454;-2.058;2024-02-26T02:34:11;9.40;90.30
76613;DHT22;65507;48.454;-2.058;2024-02-26T02:36:52;9.40;90.30
76613;DHT22;65507;48.454;-2.058;2024-02-26T02:39:18;9.40;90.40
76613;DHT22;65507;48.454;-2.058;2024-02-26T02:41:43;9.40;90.40
76613;DHT22;65507;48.454;-2.058;2024-02-26T02:44:09;9.40;90.40
76613;DHT22;65507;48.454;-2.058;2024-02-26T02:46:35;9.40;90.40
76613;DHT22;65507;48.454;-2.058;2024-02-26T02:49:01;9.40;90.40
76613;DHT22;65507;48.454;-2.058;2024-02-26T02:51:27;9.40;90.40
76613;DHT22;65507;48.454;-2.058;2024-02-26T02:53:52;9.40;90.40
76613;DHT22;65507;48.454;-2.058;2024-02-26T02:56:18;9.40;90.40
76613;DHT22;65507;48.454;-2.058;2024-02-26T02:58:44;9.40;90.50
76613;DHT22;65507;48.454;-2.058;2024-02-26T03:01:10;9.40;90.50
76613;DHT22;65507;48.454;-2.058;2024-02-26T03:03:36;9.40;90.50
76613;DHT22;65507;48.454;-2.058;2024-02-26T03:06:03;9.40;90.50
76613;DHT22;65507;48.454;-2.058;2024-02-26T03:08:29;9.40;90.50
76613;DHT22;65507;48.454;-2.058;2024-02-26T03:10:54;9.40;90.60
76613;DHT22;65507;48.454;-2.058;2024-02-26T03:13:20;9.40;90.60
76613;DHT22;65507;48.454;-2.058;2024-02-26T03:15:46;9.30;90.60
76613;DHT22;65507;48.454;-2.058;2024-02-26T03:18:11;9.30;90.60
76613;DHT22;65507;48.454;-2.058;2024-02-26T03:20:38;9.20;90.70
76613;DHT22;65507;48.454;-2.058;2024-02-26T03:23:04;9.10;90.70
76613;DHT22;65507;48.454;-2.058;2024-02-26T03:25:29;9.10;90.80
76613;DHT22;65507;48.454;-2.058;2024-02-26T03:27:55;9.00;90.80
76613;DHT22;65507;48.454;-2.058;2024-02-26T03:30:21;8.90;90.80
76613;DHT22;65507;48.454;-2.058;2024-02-26T03:32:46;8.80;90.90
76613;DHT22;65507;48.454;-2.058;2024-02-26T03:35:13;8.70;90.90
76613;DHT22;65507;48.454;-2.058;2024-02-26T03:37:38;8.70;90.90
76613;DHT22;65507;48.454;-2.058;2024-02-26T03:40:04;8.60;91.00
76613;DHT22;65507;48.454;-2.058;2024-02-26T03:42:30;8.60;91.00
76613;DHT22;65507;48.454;-2.058;2024-02-26T03:44:56;8.60;91.00
76613;DHT22;65507;48.454;-2.058;2024-02-26T03:47:21;8.60;91.00
76613;DHT22;65507;48.454;-2.058;2024-02-26T03:49:47;8.50;91.00
76613;DHT22;65507;48.454;-2.058;2024-02-26T03:52:13;8.50;91.00
76613;DHT22;65507;48.454;-2.058;2024-02-26T03:54:40;8.50;91.00
76613;DHT22;65507;48.454;-2.058;2024-02-26T03:57:06;8.50;91.00
76613;DHT22;65507;48.454;-2.058;2024-02-26T03:59:31;8.50;91.00
76613;DHT22;65507;48.454;-2.058;2024-02-26T04:01:57;8.50;91.00
76613;DHT22;65507;48.454;-2.058;2024-02-26T04:04:23;8.40;91.00
76613;DHT22;65507;48.454;-2.058;2024-02-26T04:06:48;8.40;91.00
76613;DHT22;65507;48.454;-2.058;2024-02-26T04:09:14;8.40;91.10
76613;DHT22;65507;48.454;-2.058;2024-02-26T04:11:40;8.40;91.10
76613;DHT22;65507;48.454;-2.058;2024-02-26T04:14:06;8.40;91.10
76613;DHT22;65507;48.454;-2.058;2024-02-26T04:16:34;8.40;91.20
76613;DHT22;65507;48.454;-2.058;2024-02-26T04:19:00;8.30;91.10
76613;DHT22;65507;48.454;-2.058;2024-02-26T04:21:26;8.30;91.10
76613;DHT22;65507;48.454;-2.058;2024-02-26T04:23:51;8.30;91.20
76613;DHT22;65507;48.454;-2.058;2024-02-26T04:26:20;8.30;91.20
76613;DHT22;65507;48.454;-2.058;2024-02-26T04:28:46;8.30;91.30
76613;DHT22;65507;48.454;-2.058;2024-02-26T04:31:12;8.30;91.30
76613;DHT22;65507;48.454;-2.058;2024-02-26T04:33:38;8.30;91.40
76613;DHT22;65507;48.454;-2.058;2024-02-26T04:36:04;8.20;91.40
76613;DHT22;65507;48.454;-2.058;2024-02-26T04:38:29;8.30;91.40
76613;DHT22;65507;48.454;-2.058;2024-02-26T04:40:55;8.20;91.40
76613;DHT22;65507;48.454;-2.058;2024-02-26T04:43:21;8.20;91.50
76613;DHT22;65507;48.454;-2.058;2024-02-26T04:45:46;8.20;91.50
76613;DHT22;65507;48.454;-2.058;2024-02-26T04:48:12;8.10;91.50
76613;DHT22;65507;48.454;-2.058;2024-02-26T04:50:38;8.10;91.60
76613;DHT22;65507;48.454;-2.058;2024-02-26T04:53:04;8.10;91.60
76613;DHT22;65507;48.454;-2.058;2024-02-26T04:55:29;8.10;91.60
76613;DHT22;65507;48.454;-2.058;2024-02-26T04:57:55;8.10;91.60
76613;DHT22;65507;48.454;-2.058;2024-02-26T05:00:21;8.20;91.70
76613;DHT22;65507;48.454;-2.058;2024-02-26T05:02:46;8.50;91.80
76613;DHT22;65507;48.454;-2.058;2024-02-26T05:05:12;8.10;91.70
76613;DHT22;65507;48.454;-2.058;2024-02-26T05:07:41;8.10;91.80
76613;DHT22;65507;48.454;-2.058;2024-02-26T05:10:10;8.00;91.80
76613;DHT22;65507;48.454;-2.058;2024-02-26T05:12:36;8.10;91.80
76613;DHT22;65507;48.454;-2.058;2024-02-26T05:15:03;8.00;91.80
76613;DHT22;65507;48.454;-2.058;2024-02-26T05:17:28;8.00;91.80
76613;DHT22;65507;48.454;-2.058;2024-02-26T05:19:54;8.00;91.80
76613;DHT22;65507;48.454;-2.058;2024-02-26T05:22:20;8.00;92.20
76613;DHT22;65507;48.454;-2.058;2024-02-26T05:24:45;8.00;91.80
76613;DHT22;65507;48.454;-2.058;2024-02-26T05:27:11;8.00;91.80
76613;DHT22;65507;48.454;-2.058;2024-02-26T05:29:37;8.00;91.90
76613;DHT22;65507;48.454;-2.058;2024-02-26T05:32:04;7.90;91.90
76613;DHT22;65507;48.454;-2.058;2024-02-26T05:34:30;7.80;91.90
76613;DHT22;65507;48.454;-2.058;2024-02-26T05:36:56;7.80;92.00
76613;DHT22;65507;48.454;-2.058;2024-02-26T05:39:22;7.70;92.10
76613;DHT22;65507;48.454;-2.058;2024-02-26T05:41:48;7.70;92.10
76613;DHT22;65507;48.454;-2.058;2024-02-26T05:44:15;7.70;92.20
76613;DHT22;65507;48.454;-2.058;2024-02-26T05:46:41;7.60;92.10
76613;DHT22;65507;48.454;-2.058;2024-02-26T05:49:07;7.60;92.20
76613;DHT22;65507;48.454;-2.058;2024-02-26T05:51:33;7.60;92.20
76613;DHT22;65507;48.454;-2.058;2024-02-26T05:53:58;7.60;92.10
76613;DHT22;65507;48.454;-2.058;2024-02-26T05:56:24;7.70;92.20
76613;DHT22;65507;48.454;-2.058;2024-02-26T05:58:50;7.70;92.10
76613;DHT22;65507;48.454;-2.058;2024-02-26T06:01:17;7.70;92.10
76613;DHT22;65507;48.454;-2.058;2024-02-26T06:03:43;7.70;92.10
76613;DHT22;65507;48.454;-2.058;2024-02-26T06:06:10;7.70;92.10
76613;DHT22;65507;48.454;-2.058;2024-02-26T06:08:36;7.70;92.10
76613;DHT22;65507;48.454;-2.058;2024-02-26T06:11:08;7.70;92.10
76613;DHT22;65507;48.454;-2.058;2024-02-26T06:13:36;7.60;92.00
76613;DHT22;65507;48.454;-2.058;2024-02-26T06:16:02;7.60;92.00
76613;DHT22;65507;48.454;-2.058;2024-02-26T06:18:28;7.60;91.90
76613;DHT22;65507;48.454;-2.058;2024-02-26T06:20:53;7.60;91.90
76613;DHT22;65507;48.454;-2.058;2024-02-26T06:23:19;7.60;91.90
76613;DHT22;65507;48.454;-2.058;2024-02-26T06:25:45;7.60;91.80
76613;DHT22;65507;48.454;-2.058;2024-02-26T06:28:12;7.60;91.80
76613;DHT22;65507;48.454;-2.058;2024-02-26T06:30:38;7.60;91.80
76613;DHT22;65507;48.454;-2.058;2024-02-26T06:33:04;7.60;92.20
76613;DHT22;65507;48.454;-2.058;2024-02-26T06:35:29;7.60;91.80
76613;DHT22;65507;48.454;-2.058;2024-02-26T06:37:55;7.60;91.80
76613;DHT22;65507;48.454;-2.058;2024-02-26T06:40:21;7.60;91.80
76613;DHT22;65507;48.454;-2.058;2024-02-26T06:42:47;7.60;91.80
76613;DHT22;65507;48.454;-2.058;2024-02-26T06:45:13;7.60;91.70
76613;DHT22;65507;48.454;-2.058;2024-02-26T06:47:38;7.60;91.70
76613;DHT22;65507;48.454;-2.058;2024-02-26T06:50:04;7.60;91.70
76613;DHT22;65507;48.454;-2.058;2024-02-26T06:52:30;7.60;91.60
76613;DHT22;65507;48.454;-2.058;2024-02-26T06:54:56;7.60;91.60
76613;DHT22;65507;48.454;-2.058;2024-02-26T06:57:21;7.60;91.60
76613;DHT22;65507;48.454;-2.058;2024-02-26T06:59:47;7.60;91.60
76613;DHT22;65507;48.454;-2.058;2024-02-26T07:02:16;7.60;91.60
76613;DHT22;65507;48.454;-2.058;2024-02-26T07:04:42;7.60;91.60
76613;DHT22;65507;48.454;-2.058;2024-02-26T07:07:08;7.60;91.60
76613;DHT22;65507;48.454;-2.058;2024-02-26T07:09:34;7.60;91.60
76613;DHT22;65507;48.454;-2.058;2024-02-26T07:12:00;7.60;91.50
76613;DHT22;65507;48.454;-2.058;2024-02-26T07:14:25;7.60;91.50
76613;DHT22;65507;48.454;-2.058;2024-02-26T07:16:51;7.70;91.50
76613;DHT22;65507;48.454;-2.058;2024-02-26T07:19:17;7.60;91.50
76613;DHT22;65507;48.454;-2.058;2024-02-26T07:21:43;7.70;91.60
76613;DHT22;65507;48.454;-2.058;2024-02-26T07:24:08;7.70;91.60
76613;DHT22;65507;48.454;-2.058;2024-02-26T07:26:34;7.70;91.60
76613;DHT22;65507;48.454;-2.058;2024-02-26T07:29:00;7.70;91.60
76613;DHT22;65507;48.454;-2.058;2024-02-26T07:31:26;7.70;91.60
76613;DHT22;65507;48.454;-2.058;2024-02-26T07:33:52;7.70;91.60
76613;DHT22;65507;48.454;-2.058;2024-02-26T07:36:17;7.70;91.60
76613;DHT22;65507;48.454;-2.058;2024-02-26T07:38:43;7.80;91.60
76613;DHT22;65507;48.454;-2.058;2024-02-26T07:41:09;7.80;91.60
76613;DHT22;65507;48.454;-2.058;2024-02-26T07:43:35;8.10;91.70
76613;DHT22;65507;48.454;-2.058;2024-02-26T07:46:00;7.80;91.60
76613;DHT22;65507;48.454;-2.058;2024-02-26T07:48:26;7.80;91.60
76613;DHT22;65507;48.454;-2.058;2024-02-26T07:50:52;7.80;91.60
76613;DHT22;65507;48.454;-2.058;2024-02-26T07:53:17;7.80;91.60
76613;DHT22;65507;48.454;-2.058;2024-02-26T07:55:43;7.80;91.60
76613;DHT22;65507;48.454;-2.058;2024-02-26T07:58:09;7.90;91.50
76613;DHT22;65507;48.454;-2.058;2024-02-26T08:00:34;7.90;91.50
76613;DHT22;65507;48.454;-2.058;2024-02-26T08:03:00;7.80;91.50
76613;DHT22;65507;48.454;-2.058;2024-02-26T08:05:26;7.90;91.60
76613;DHT22;65507;48.454;-2.058;2024-02-26T08:07:52;7.90;91.60
76613;DHT22;65507;48.454;-2.058;2024-02-26T08:10:17;7.90;91.60
76613;DHT22;65507;48.454;-2.058;2024-02-26T08:12:43;8.00;91.70
76613;DHT22;65507;48.454;-2.058;2024-02-26T08:15:10;7.80;91.70
76613;DHT22;65507;48.454;-2.058;2024-02-26T08:17:37;7.90;91.70
76613;DHT22;65507;48.454;-2.058;2024-02-26T08:20:03;7.80;91.60
76613;DHT22;65507;48.454;-2.058;2024-02-26T08:22:29;7.80;91.70
76613;DHT22;65507;48.454;-2.058;2024-02-26T08:24:54;7.80;91.70
76613;DHT22;65507;48.454;-2.058;2024-02-26T08:27:20;7.80;91.70
76613;DHT22;65507;48.454;-2.058;2024-02-26T08:29:45;7.90;91.70
76613;DHT22;65507;48.454;-2.058;2024-02-26T08:32:11;7.90;91.70
76613;DHT22;65507;48.454;-2.058;2024-02-26T08:34:37;7.90;91.70
76613;DHT22;65507;48.454;-2.058;2024-02-26T08:37:03;7.90;91.70
76613;DHT22;65507;48.454;-2.058;2024-02-26T08:39:28;7.90;91.70
76613;DHT22;65507;48.454;-2.058;2024-02-26T08:41:54;7.90;91.70
76613;DHT22;65507;48.454;-2.058;2024-02-26T08:44:23;7.90;91.60
76613;DHT22;65507;48.454;-2.058;2024-02-26T08:46:49;7.90;91.60
76613;DHT22;65507;48.454;-2.058;2024-02-26T08:49:16;7.90;91.60
76613;DHT22;65507;48.454;-2.058;2024-02-26T08:51:44;7.90;91.60
76613;DHT22;65507;48.454;-2.058;2024-02-26T08:54:10;7.90;91.50
76613;DHT22;65507;48.454;-2.058;2024-02-26T08:56:36;7.90;91.50
76613;DHT22;65507;48.454;-2.058;2024-02-26T08:59:02;7.90;91.40
76613;DHT22;65507;48.454;-2.058;2024-02-26T09:01:30;8.00;91.40
76613;DHT22;65507;48.454;-2.058;2024-02-26T09:03:56;8.00;91.40
76613;DHT22;65507;48.454;-2.058;2024-02-26T09:06:22;8.00;91.30
76613;DHT22;65507;48.454;-2.058;2024-02-26T09:08:47;8.00;91.30
76613;DHT22;65507;48.454;-2.058;2024-02-26T09:11:13;8.10;91.30
76613;DHT22;65507;48.454;-2.058;2024-02-26T09:13:39;8.10;91.30
76613;DHT22;65507;48.454;-2.058;2024-02-26T09:16:05;8.00;91.20
76613;DHT22;65507;48.454;-2.058;2024-02-26T09:18:31;8.00;91.30
76613;DHT22;65507;48.454;-2.058;2024-02-26T09:20:57;8.00;91.30
76613;DHT22;65507;48.454;-2.058;2024-02-26T09:23:22;8.00;91.30
76613;DHT22;65507;48.454;-2.058;2024-02-26T09:25:48;8.00;91.30
76613;DHT22;65507;48.454;-2.058;2024-02-26T09:28:14;8.00;91.20
76613;DHT22;65507;48.454;-2.058;2024-02-26T09:30:45;8.20;91.20
76613;DHT22;65507;48.454;-2.058;2024-02-26T09:33:11;8.00;91.10
76613;DHT22;65507;48.454;-2.058;2024-02-26T09:35:37;8.00;91.20
76613;DHT22;65507;48.454;-2.058;2024-02-26T09:38:02;8.00;91.20
76613;DHT22;65507;48.454;-2.058;2024-02-26T09:40:28;7.90;91.30
76613;DHT22;65507;48.454;-2.058;2024-02-26T09:42:59;7.80;91.40
76613;DHT22;65507;48.454;-2.058;2024-02-26T09:45:26;7.70;91.50
76613;DHT22;65507;48.454;-2.058;2024-02-26T09:47:53;7.70;91.60
76613;DHT22;65507;48.454;-2.058;2024-02-26T09:50:20;7.60;91.70
76613;DHT22;65507;48.454;-2.058;2024-02-26T09:52:48;7.60;91.80
76613;DHT22;65507;48.454;-2.058;2024-02-26T09:55:14;7.60;91.70
76613;DHT22;65507;48.454;-2.058;2024-02-26T09:57:45;7.60;91.60
76613;DHT22;65507;48.454;-2.058;2024-02-26T10:00:17;7.60;91.60
76613;DHT22;65507;48.454;-2.058;2024-02-26T10:02:45;7.70;91.70
76613;DHT22;65507;48.454;-2.058;2024-02-26T10:05:12;7.70;91.60
76613;DHT22;65507;48.454;-2.058;2024-02-26T10:07:40;7.70;91.60
76613;DHT22;65507;48.454;-2.058;2024-02-26T10:10:08;7.80;91.60
76613;DHT22;65507;48.454;-2.058;2024-02-26T10:12:34;7.80;91.50
76613;DHT22;65507;48.454;-2.058;2024-02-26T10:14:59;7.80;91.50
76613;DHT22;65507;48.454;-2.058;2024-02-26T10:17:25;7.80;91.50
76613;DHT22;65507;48.454;-2.058;2024-02-26T10:19:51;7.80;91.50
76613;DHT22;65507;48.454;-2.058;2024-02-26T10:22:22;7.80;91.60
76613;DHT22;65507;48.454;-2.058;2024-02-26T10:24:47;7.70;91.60
76613;DHT22;65507;48.454;-2.058;2024-02-26T10:27:15;7.70;91.60
76613;DHT22;65507;48.454;-2.058;2024-02-26T10:29:40;7.70;91.60
76613;DHT22;65507;48.454;-2.058;2024-02-26T10:32:09;7.70;91.50
76613;DHT22;65507;48.454;-2.058;2024-02-26T10:34:35;7.70;91.50
76613;DHT22;65507;48.454;-2.058;2024-02-26T10:37:04;7.70;91.50
76613;DHT22;65507;48.454;-2.058;2024-02-26T10:39:30;7.70;91.50
76613;DHT22;65507;48.454;-2.058;2024-02-26T10:41:56;7.70;91.40
76613;DHT22;65507;48.454;-2.058;2024-02-26T10:44:21;7.70;91.40
76613;DHT22;65507;48.454;-2.058;2024-02-26T10:46:50;7.70;91.40
76613;DHT22;65507;48.454;-2.058;2024-02-26T10:49:16;7.70;91.30
76613;DHT22;65507;48.454;-2.058;2024-02-26T10:51:45;7.70;91.30
76613;DHT22;65507;48.454;-2.058;2024-02-26T10:54:15;7.80;91.30
76613;DHT22;65507;48.454;-2.058;2024-02-26T10:56:42;7.80;91.30
76613;DHT22;65507;48.454;-2.058;2024-02-26T10:59:10;7.80;91.30
76613;DHT22;65507;48.454;-2.058;2024-02-26T11:01:39;7.80;91.20
76613;DHT22;65507;48.454;-2.058;2024-02-26T11:04:09;7.80;91.20
76613;DHT22;65507;48.454;-2.058;2024-02-26T11:06:35;7.80;91.20
76613;DHT22;65507;48.454;-2.058;2024-02-26T11:09:02;7.90;91.10
76613;DHT22;65507;48.454;-2.058;2024-02-26T11:11:31;7.90;91.00
76613;DHT22;65507;48.454;-2.058;2024-02-26T11:13:57;7.90;91.00
76613;DHT22;65507;48.454;-2.058;2024-02-26T11:16:26;7.90;90.90
76613;DHT22;65507;48.454;-2.058;2024-02-26T11:18:53;7.10;90.70
76613;DHT22;65507;48.454;-2.058;2024-02-26T11:21:21;7.90;90.90
76613;DHT22;65507;48.454;-2.058;2024-02-26T11:24:05;8.00;90.90
76613;DHT22;65507;48.454;-2.058;2024-02-26T11:26:33;8.00;90.80
76613;DHT22;65507;48.454;-2.058;2024-02-26T11:29:00;8.00;90.70
76613;DHT22;65507;48.454;-2.058;2024-02-26T11:31:27;8.00;90.60
76613;DHT22;65507;48.454;-2.058;2024-02-26T11:33:54;8.00;90.50
76613;DHT22;65507;48.454;-2.058;2024-02-26T11:36:21;8.00;90.40
76613;DHT22;65507;48.454;-2.058;2024-02-26T11:38:49;8.00;90.40
76613;DHT22;65507;48.454;-2.058;2024-02-26T11:41:17;8.10;90.40
76613;DHT22;65507;48.454;-2.058;2024-02-26T11:43:53;8.10;90.30
76613;DHT22;65507;48.454;-2.058;2024-02-26T11:46:33;8.20;90.10
76613;DHT22;65507;48.454;-2.058;2024-02-26T11:49:03;8.20;90.00
76613;DHT22;65507;48.454;-2.058;2024-02-26T11:51:51;8.30;90.00
76613;DHT22;65507;48.454;-2.058;2024-02-26T11:59:46;8.50;89.30
76613;DHT22;65507;48.454;-2.058;2024-02-26T12:02:19;8.50;89.00
76613;DHT22;65507;48.454;-2.058;2024-02-26T12:04:58;8.60;88.90
76613;DHT22;65507;48.454;-2.058;2024-02-26T12:07:26;8.70;88.60
76613;DHT22;65507;48.454;-2.058;2024-02-26T12:09:52;9.00;88.50
76613;DHT22;65507;48.454;-2.058;2024-02-26T12:12:38;8.80;88.10
76613;DHT22;65507;48.454;-2.058;2024-02-26T12:15:05;8.70;87.70
76613;DHT22;65507;48.454;-2.058;2024-02-26T12:17:31;8.70;87.90
76613;DHT22;65507;48.454;-2.058;2024-02-26T12:20:11;8.70;87.80
76613;DHT22;65507;48.454;-2.058;2024-02-26T12:22:41;8.70;87.60
76613;DHT22;65507;48.454;-2.058;2024-02-26T12:25:09;8.70;87.70
76613;DHT22;65507;48.454;-2.058;2024-02-26T12:27:35;8.70;87.60
76613;DHT22;65507;48.454;-2.058;2024-02-26T12:30:02;8.70;87.50
76613;DHT22;65507;48.454;-2.058;2024-02-26T12:32:28;8.70;87.20
76613;DHT22;65507;48.454;-2.058;2024-02-26T12:34:54;8.70;87.10
76613;DHT22;65507;48.454;-2.058;2024-02-26T12:37:20;8.70;86.70
76613;DHT22;65507;48.454;-2.058;2024-02-26T12:39:46;8.70;86.80
76613;DHT22;65507;48.454;-2.058;2024-02-26T12:42:11;8.70;86.70
76613;DHT22;65507;48.454;-2.058;2024-02-26T12:44:37;8.70;86.50
76613;DHT22;65507;48.454;-2.058;2024-02-26T12:47:04;8.70;86.40
76613;DHT22;65507;48.454;-2.058;2024-02-26T12:49:30;8.70;86.30
76613;DHT22;65507;48.454;-2.058;2024-02-26T12:51:56;8.60;86.00
76613;DHT22;65507;48.454;-2.058;2024-02-26T12:54:30;8.60;86.10
76613;DHT22;65507;48.454;-2.058;2024-02-26T12:57:05;8.60;86.00
76613;DHT22;65507;48.454;-2.058;2024-02-26T12:59:33;8.60;85.90
76613;DHT22;65507;48.454;-2.058;2024-02-26T13:02:00;8.60;85.90
76613;DHT22;65507;48.454;-2.058;2024-02-26T13:04:28;8.60;86.30
76613;DHT22;65507;48.454;-2.058;2024-02-26T13:06:54;8.60;85.60
76613;DHT22;65507;48.454;-2.058;2024-02-26T13:09:20;8.60;85.70
76613;DHT22;65507;48.454;-2.058;2024-02-26T13:11:53;8.60;85.60
76613;DHT22;65507;48.454;-2.058;2024-02-26T13:14:21;8.60;85.50
76613;DHT22;65507;48.454;-2.058;2024-02-26T13:16:57;8.60;85.50
76613;DHT22;65507;48.454;-2.058;2024-02-26T13:19:23;8.60;85.60
76613;DHT22;65507;48.454;-2.058;2024-02-26T13:21:49;8.60;85.50
76613;DHT22;65507;48.454;-2.058;2024-02-26T13:24:15;8.60;85.20
76613;DHT22;65507;48.454;-2.058;2024-02-26T13:26:41;8.60;85.30
76613;DHT22;65507;48.454;-2.058;2024-02-26T13:29:06;8.60;85.20
76613;DHT22;65507;48.454;-2.058;2024-02-26T13:31:38;8.60;85.10
76613;DHT22;65507;48.454;-2.058;2024-02-26T13:34:05;8.60;85.10
76613;DHT22;65507;48.454;-2.058;2024-02-26T13:36:30;8.60;85.00
76613;DHT22;65507;48.454;-2.058;2024-02-26T13:38:56;8.60;84.80
76613;DHT22;65507;48.454;-2.058;2024-02-26T13:41:22;8.60;84.70
76613;DHT22;65507;48.454;-2.058;2024-02-26T13:43:48;8.60;84.50
76613;DHT22;65507;48.454;-2.058;2024-02-26T13:46:14;8.60;84.60
76613;DHT22;65507;48.454;-2.058;2024-02-26T13:48:41;8.60;84.60
76613;DHT22;65507;48.454;-2.058;2024-02-26T13:51:07;8.60;84.70
76613;DHT22;65507;48.454;-2.058;2024-02-26T13:53:33;8.70;84.60
76613;DHT22;65507;48.454;-2.058;2024-02-26T13:55:58;8.60;84.50
76613;DHT22;65507;48.454;-2.058;2024-02-26T13:58:27;8.60;84.50
76613;DHT22;65507;48.454;-2.058;2024-02-26T14:00:53;8.70;84.50
76613;DHT22;65507;48.454;-2.058;2024-02-26T14:03:20;8.70;84.50
76613;DHT22;65507;48.454;-2.058;2024-02-26T14:05:46;8.70;85.10
76613;DHT22;65507;48.454;-2.058;2024-02-26T14:08:12;8.70;84.30
76613;DHT22;65507;48.454;-2.058;2024-02-26T14:10:38;8.70;84.00
76613;DHT22;65507;48.454;-2.058;2024-02-26T14:13:04;8.70;83.80
76613;DHT22;65507;48.454;-2.058;2024-02-26T14:15:30;8.70;83.80
76613;DHT22;65507;48.454;-2.058;2024-02-26T14:17:56;8.70;83.60
76613;DHT22;65507;48.454;-2.058;2024-02-26T14:20:23;8.80;83.40
76613;DHT22;65507;48.454;-2.058;2024-02-26T14:22:57;8.70;83.30
76613;DHT22;65507;48.454;-2.058;2024-02-26T14:25:23;8.80;83.30
76613;DHT22;65507;48.454;-2.058;2024-02-26T14:27:49;8.80;82.90
76613;DHT22;65507;48.454;-2.058;2024-02-26T14:30:15;8.80;82.80
76613;DHT22;65507;48.454;-2.058;2024-02-26T14:32:41;8.90;82.50
76613;DHT22;65507;48.454;-2.058;2024-02-26T14:35:08;8.90;82.50
76613;DHT22;65507;48.454;-2.058;2024-02-26T14:37:37;8.90;82.40
76613;DHT22;65507;48.454;-2.058;2024-02-26T14:40:03;8.90;82.00
76613;DHT22;65507;48.454;-2.058;2024-02-26T14:42:29;8.90;82.00
76613;DHT22;65507;48.454;-2.058;2024-02-26T14:44:55;8.90;82.00
76613;DHT22;65507;48.454;-2.058;2024-02-26T14:47:21;8.90;81.80
76613;DHT22;65507;48.454;-2.058;2024-02-26T14:49:46;9.00;81.50
76613;DHT22;65507;48.454;-2.058;2024-02-26T14:52:14;9.00;81.80
76613;DHT22;65507;48.454;-2.058;2024-02-26T14:54:40;9.00;81.70
76613;DHT22;65507;48.454;-2.058;2024-02-26T14:57:06;9.00;81.40
76613;DHT22;65507;48.454;-2.058;2024-02-26T14:59:32;9.00;81.20
76613;DHT22;65507;48.454;-2.058;2024-02-26T15:01:58;8.90;81.20
76613;DHT22;65507;48.454;-2.058;2024-02-26T15:04:27;9.00;81.50
76613;DHT22;65507;48.454;-2.058;2024-02-26T15:06:53;8.90;81.00
76613;DHT22;65507;48.454;-2.058;2024-02-26T15:09:19;8.90;81.00
76613;DHT22;65507;48.454;-2.058;2024-02-26T15:11:44;9.00;81.10
76613;DHT22;65507;48.454;-2.058;2024-02-26T15:14:10;8.90;81.10
76613;DHT22;65507;48.454;-2.058;2024-02-26T15:16:36;9.00;81.00
76613;DHT22;65507;48.454;-2.058;2024-02-26T15:19:02;9.00;80.70
76613;DHT22;65507;48.454;-2.058;2024-02-26T15:21:32;9.00;80.40
76613;DHT22;65507;48.454;-2.058;2024-02-26T15:23:58;9.00;80.40
76613;DHT22;65507;48.454;-2.058;2024-02-26T15:26:24;9.10;80.40
76613;DHT22;65507;48.454;-2.058;2024-02-26T15:28:51;9.10;80.20
76613;DHT22;65507;48.454;-2.058;2024-02-26T15:31:19;9.10;79.90